createdAt,value
2023-12-07T00:00:18.669Z,91644.78
2023-12-07T00:03:22.149Z,91643.84
2023-12-07T00:06:25.700Z,91632.13
2023-12-07T00:09:29.353Z,91636.50
2023-12-07T00:12:33.152Z,91630.97
2023-12-07T00:15:36.886Z,91612.31
2023-12-07T00:18:40.684Z,91601.66
2023-12-07T00:21:44.470Z,91594.97
2023-12-07T00:24:48.065Z,91597.50
2023-12-07T00:27:51.780Z,91598.19
2023-12-07T00:30:55.652Z,91582.34
2023-12-07T00:33:59.490Z,91567.88
2023-12-07T00:37:03.343Z,91546.28
2023-12-07T00:40:07.804Z,91556.66
2023-12-07T00:43:11.561Z,91560.31
2023-12-07T00:46:15.182Z,91555.25
2023-12-07T00:49:18.946Z,91541.66
2023-12-07T00:52:23.325Z,91553.81
2023-12-07T00:55:27.262Z,91575.94
2023-12-07T00:58:31.073Z,91580.50
2023-12-07T01:01:34.707Z,91569.66
2023-12-07T01:04:38.754Z,91562.72
2023-12-07T01:07:42.558Z,91568.19
2023-12-07T01:10:46.309Z,91558.53
2023-12-07T01:13:49.915Z,91571.66
2023-12-07T01:16:53.670Z,91577.91
2023-12-07T01:19:57.371Z,91602.50
2023-12-07T01:23:01.246Z,91602.66
2023-12-07T01:26:05.033Z,91607.69
2023-12-07T01:29:08.670Z,91588.84
2023-12-07T01:32:12.452Z,91582.38
2023-12-07T01:35:16.050Z,91581.28
2023-12-07T01:38:19.697Z,91558.06
2023-12-07T01:41:23.557Z,91554.56
2023-12-07T01:44:28.663Z,91553.81
2023-12-07T01:47:33.244Z,91558.25
2023-12-07T01:50:38.048Z,91554.13
2023-12-07T01:53:41.934Z,91562.53
2023-12-07T01:56:45.718Z,91562.53
2023-12-07T01:59:51.150Z,91580.75
2023-12-07T02:02:54.975Z,91587.34
2023-12-07T02:06:00.165Z,91597.22
2023-12-07T02:09:04.707Z,91579.34
2023-12-07T02:12:08.394Z,91554.88
2023-12-07T02:15:13.201Z,91556.69
2023-12-07T02:18:37.285Z,91554.56
2023-12-07T02:21:47.842Z,91539.41
2023-12-07T02:25:03.214Z,91517.06
2023-12-07T02:28:07.067Z,91515.28
2023-12-07T02:31:10.755Z,91491.50
2023-12-07T02:34:14.490Z,91482.63
2023-12-07T02:37:19.257Z,91475.16
2023-12-07T02:40:30.642Z,91455.63
2023-12-07T02:43:35.386Z,91453.31
2023-12-07T02:46:39.904Z,91450.31
2023-12-07T02:49:43.494Z,91426.59
2023-12-07T02:52:47.551Z,91440.59
2023-12-07T02:55:51.274Z,91449.09
2023-12-07T02:58:54.838Z,91432.88
2023-12-07T03:01:58.592Z,91405.56
2023-12-07T03:05:02.287Z,91412.63
2023-12-07T03:08:06.134Z,91396.41
2023-12-07T03:11:09.802Z,91392.31
2023-12-07T03:14:13.705Z,91402.81
2023-12-07T03:17:17.368Z,91405.25
2023-12-07T03:20:20.822Z,91396.63
2023-12-07T03:23:24.343Z,91401.22
2023-12-07T03:26:27.930Z,91393.69
2023-12-07T03:29:32.506Z,91394.84
2023-12-07T03:32:36.382Z,91385.81
2023-12-07T03:35:40.095Z,91381.97
2023-12-07T03:38:43.748Z,91368.06
2023-12-07T03:41:47.298Z,91370.00
2023-12-07T03:44:51.585Z,91372.94
2023-12-07T03:47:55.352Z,91371.56
2023-12-07T03:50:58.969Z,91372.28
2023-12-07T03:54:02.423Z,91349.19
2023-12-07T03:57:06.871Z,91343.09
2023-12-07T04:00:13.938Z,91347.00
2023-12-07T04:03:17.579Z,91335.94
2023-12-07T04:06:22.614Z,91335.38
2023-12-07T04:09:26.244Z,91343.44
2023-12-07T04:12:29.942Z,91337.81
2023-12-07T04:15:33.577Z,91348.53
2023-12-07T04:18:37.827Z,91352.84
2023-12-07T04:21:41.390Z,91352.69
2023-12-07T04:24:45.526Z,91344.03
2023-12-07T04:27:49.179Z,91345.94
2023-12-07T04:30:52.837Z,91370.59
2023-12-07T04:33:56.602Z,91375.06
2023-12-07T04:37:00.470Z,91354.09
2023-12-07T04:40:06.933Z,91365.22
2023-12-07T04:43:10.784Z,91361.94
2023-12-07T04:46:15.494Z,91365.19
2023-12-07T04:49:20.673Z,91346.16
2023-12-07T04:52:24.538Z,91333.63
2023-12-07T04:55:28.444Z,91334.13
2023-12-07T04:58:31.949Z,91338.63
2023-12-07T05:01:37.738Z,91351.09
2023-12-07T05:04:41.443Z,91359.72
2023-12-07T05:07:45.187Z,91331.56
2023-12-07T05:10:49.071Z,91333.41
2023-12-07T05:13:53.239Z,91337.16
2023-12-07T05:16:57.682Z,91330.78
2023-12-07T05:20:01.282Z,91344.28
2023-12-07T05:23:05.164Z,91345.19
2023-12-07T05:26:09.843Z,91324.06
2023-12-07T05:29:13.572Z,91322.38
2023-12-07T05:32:17.454Z,91305.06
2023-12-07T05:35:20.947Z,91291.97
2023-12-07T05:38:24.689Z,91286.38
2023-12-07T05:41:28.637Z,91266.56
2023-12-07T05:44:32.662Z,91235.63
2023-12-07T05:47:36.934Z,91219.72
2023-12-07T05:50:41.313Z,91263.94
2023-12-07T05:53:45.680Z,91300.03
2023-12-07T05:56:49.315Z,91310.63
2023-12-07T05:59:52.813Z,91308.53
2023-12-07T06:02:56.537Z,91290.78
2023-12-07T06:06:00.046Z,91290.09
2023-12-07T06:09:03.794Z,91305.16
2023-12-07T06:12:07.579Z,91303.25
2023-12-07T06:15:11.767Z,91293.19
2023-12-07T06:18:16.453Z,91281.41
2023-12-07T06:21:22.480Z,91295.75
2023-12-07T06:24:26.439Z,91286.19
2023-12-07T06:27:30.081Z,91303.28
2023-12-07T06:30:33.755Z,91303.66
2023-12-07T06:33:37.472Z,91289.09
2023-12-07T06:36:41.093Z,91285.50
2023-12-07T06:39:45.059Z,91293.69
2023-12-07T06:42:50.089Z,91289.94
2023-12-07T06:45:54.821Z,91285.50
2023-12-07T06:48:58.379Z,91286.00
2023-12-07T06:52:02.161Z,91296.78
2023-12-07T06:55:06.518Z,91304.44
2023-12-07T06:58:10.797Z,91307.03
2023-12-07T07:01:16.060Z,91308.72
2023-12-07T07:04:20.607Z,91317.28
2023-12-07T07:07:24.443Z,91307.69
2023-12-07T07:10:28.171Z,91299.16
2023-12-07T07:13:31.920Z,91297.78
2023-12-07T07:16:35.845Z,91310.22
2023-12-07T07:19:39.606Z,91321.66
2023-12-07T07:22:43.235Z,91339.06
2023-12-07T07:25:47.043Z,91350.66
2023-12-07T07:28:51.942Z,91355.44
2023-12-07T07:31:56.151Z,91350.09
2023-12-07T07:34:59.966Z,91354.19
2023-12-07T07:38:03.662Z,91361.88
2023-12-07T07:41:07.673Z,91376.19
2023-12-07T07:44:11.260Z,91391.56
2023-12-07T07:47:15.181Z,91387.66
2023-12-07T07:50:19.512Z,91377.94
2023-12-07T07:53:23.270Z,91358.78
2023-12-07T07:56:26.963Z,91346.31
2023-12-07T07:59:30.746Z,91350.94
2023-12-07T08:02:34.224Z,91339.50
2023-12-07T08:05:37.982Z,91341.88
2023-12-07T08:08:41.662Z,91311.94
2023-12-07T08:11:45.699Z,91322.56
2023-12-07T08:14:50.342Z,91326.50
2023-12-07T08:17:54.214Z,91327.38
2023-12-07T08:20:58.085Z,91330.28
2023-12-07T08:24:01.843Z,91333.19
2023-12-07T08:27:05.761Z,91319.66
2023-12-07T08:30:11.309Z,91332.00
2023-12-07T08:33:15.710Z,91330.81
2023-12-07T08:36:19.367Z,91320.16
2023-12-07T08:39:23.132Z,91341.06
2023-12-07T08:42:28.477Z,91354.41
2023-12-07T08:45:32.152Z,91371.66
2023-12-07T08:48:37.113Z,91387.19
2023-12-07T08:51:56.719Z,91380.91
2023-12-07T08:55:05.613Z,91413.88
2023-12-07T08:58:10.151Z,91417.31
2023-12-07T09:01:25.344Z,91415.97
2023-12-07T09:04:34.391Z,91413.56
2023-12-07T09:07:38.481Z,91420.75
2023-12-07T09:10:42.270Z,91435.75
2023-12-07T09:13:45.829Z,91457.66
2023-12-07T09:16:49.581Z,91466.50
2023-12-07T09:19:53.359Z,91468.22
2023-12-07T09:22:59.130Z,91470.81
2023-12-07T09:26:03.161Z,91481.06
2023-12-07T09:29:07.667Z,91474.22
2023-12-07T09:32:11.701Z,91469.41
2023-12-07T09:35:17.193Z,91467.72
2023-12-07T09:38:20.914Z,91486.19
2023-12-07T09:41:25.789Z,91484.97
2023-12-07T09:44:29.800Z,91477.63
2023-12-07T09:47:37.464Z,91476.09
2023-12-07T09:50:42.236Z,91490.09
2023-12-07T09:53:47.663Z,91474.03
2023-12-07T09:56:53.273Z,91469.59
2023-12-07T09:59:58.126Z,91475.41
2023-12-07T10:03:01.820Z,91475.06
2023-12-07T10:06:06.335Z,91484.97
2023-12-07T10:09:15.029Z,91486.69
2023-12-07T10:12:24.167Z,91489.59
2023-12-07T10:15:27.971Z,91496.59
2023-12-07T10:18:32.060Z,91498.66
2023-12-07T10:21:36.090Z,91516.75
2023-12-07T10:24:40.192Z,91525.97
2023-12-07T10:27:46.914Z,91537.06
2023-12-07T10:30:50.648Z,91528.22
2023-12-07T10:33:54.754Z,91533.16
2023-12-07T10:36:59.888Z,91525.13
2023-12-07T10:40:04.897Z,91541.03
2023-12-07T10:43:09.922Z,91540.00
2023-12-07T10:46:20.386Z,91538.09
2023-12-07T10:49:34.262Z,91549.75
2023-12-07T10:52:46.775Z,91559.50
2023-12-07T10:55:58.132Z,91570.44
2023-12-07T10:59:01.599Z,91575.56
2023-12-07T11:02:08.565Z,91594.19
2023-12-07T11:05:12.730Z,91593.84
2023-12-07T11:08:47.383Z,91588.38
2023-12-07T11:12:07.981Z,91595.06
2023-12-07T11:15:12.091Z,91604.94
2023-12-07T11:18:16.058Z,91627.19
2023-12-07T11:21:19.959Z,91610.09
2023-12-07T11:24:25.668Z,91616.59
2023-12-07T11:27:33.855Z,91614.38
2023-12-07T11:30:38.275Z,91621.72
2023-12-07T11:33:43.578Z,91627.72
2023-12-07T11:36:48.430Z,91633.72
2023-12-07T11:39:52.549Z,91646.03
2023-12-07T11:42:56.192Z,91649.44
2023-12-07T11:45:59.957Z,91651.63
2023-12-07T11:49:04.822Z,91671.78
2023-12-07T11:52:19.165Z,91669.53
2023-12-07T11:55:22.836Z,91671.91
2023-12-07T11:58:31.358Z,91671.91
2023-12-07T12:01:35.492Z,91678.56
2023-12-07T12:04:40.142Z,91679.59
2023-12-07T12:07:43.940Z,91680.47
2023-12-07T12:10:49.634Z,91697.41
2023-12-07T12:13:53.352Z,91700.13
2023-12-07T12:17:00.329Z,91717.53
2023-12-07T12:20:05.764Z,91697.84
2023-12-07T12:23:09.448Z,91701.44
2023-12-07T12:26:13.259Z,91707.91
2023-12-07T12:29:23.623Z,91722.28
2023-12-07T12:32:47.692Z,91710.53
2023-12-07T12:36:09.018Z,91713.91
2023-12-07T12:39:22.878Z,91730.84
2023-12-07T12:42:30.806Z,91732.06
2023-12-07T12:45:35.755Z,91732.25
2023-12-07T12:48:40.016Z,91743.34
2023-12-07T12:51:44.190Z,91733.91
2023-12-07T12:54:50.458Z,91733.56
2023-12-07T12:57:54.906Z,91740.56
2023-12-07T13:00:58.668Z,91730.59
2023-12-07T13:04:02.481Z,91742.91
2023-12-07T13:07:06.273Z,91745.66
2023-12-07T13:10:10.466Z,91748.38
2023-12-07T13:13:14.399Z,91748.38
2023-12-07T13:16:22.698Z,91750.53
2023-12-07T13:19:26.503Z,91757.19
2023-12-07T13:22:30.356Z,91764.81
2023-12-07T13:25:34.134Z,91768.59
2023-12-07T13:28:38.864Z,91760.16
2023-12-07T13:31:43.072Z,91764.78
2023-12-07T13:34:46.879Z,91778.69
2023-12-07T13:37:50.455Z,91793.34
2023-12-07T13:40:54.414Z,91774.63
2023-12-07T13:43:58.110Z,91771.50
2023-12-07T13:47:02.028Z,91781.56
2023-12-07T13:50:06.817Z,91778.75
2023-12-07T13:53:14.368Z,91792.22
2023-12-07T13:56:17.856Z,91796.31
2023-12-07T13:59:21.543Z,91814.91
2023-12-07T14:02:25.645Z,91804.84
2023-12-07T14:05:29.529Z,91814.47
2023-12-07T14:08:33.264Z,91801.16
2023-12-07T14:11:37.171Z,91800.78
2023-12-07T14:14:41.895Z,91814.78
2023-12-07T14:17:53.159Z,91827.94
2023-12-07T14:21:08.239Z,91824.56
2023-12-07T14:24:22.125Z,91840.69
2023-12-07T14:27:26.392Z,91830.78
2023-12-07T14:30:30.384Z,91835.81
2023-12-07T14:33:34.216Z,91848.00
2023-12-07T14:36:40.852Z,91864.50
2023-12-07T14:39:45.705Z,91859.69
2023-12-07T14:42:49.381Z,91868.28
2023-12-07T14:45:54.381Z,91857.28
2023-12-07T14:48:58.100Z,91853.16
2023-12-07T14:52:02.360Z,91835.19
2023-12-07T14:55:07.444Z,91825.06
2023-12-07T14:58:10.928Z,91835.84
2023-12-07T15:01:14.552Z,91846.69
2023-12-07T15:04:25.180Z,91852.22
2023-12-07T15:07:35.101Z,91860.81
2023-12-07T15:10:39.167Z,91863.56
2023-12-07T15:13:43.658Z,91861.00
2023-12-07T15:16:47.256Z,91860.53
2023-12-07T15:19:51.325Z,91878.53
2023-12-07T15:22:54.981Z,91903.34
2023-12-07T15:25:59.057Z,91908.53
2023-12-07T15:29:02.841Z,91905.53
2023-12-07T15:32:07.609Z,91905.09
2023-12-07T15:35:11.253Z,91914.88
2023-12-07T15:38:15.086Z,91915.56
2023-12-07T15:41:18.844Z,91905.88
2023-12-07T15:44:28.120Z,91931.47
2023-12-07T15:47:33.488Z,91922.66
2023-12-07T15:50:37.298Z,91922.47
2023-12-07T15:53:40.967Z,91922.25
2023-12-07T15:56:46.118Z,91906.25
2023-12-07T15:59:49.950Z,91919.09
2023-12-07T16:02:55.283Z,91917.72
2023-12-07T16:05:59.142Z,91925.06
2023-12-07T16:09:02.836Z,91923.28
2023-12-07T16:12:08.017Z,91942.03
2023-12-07T16:15:12.517Z,91946.53
2023-12-07T16:18:16.228Z,91967.00
2023-12-07T16:21:22.814Z,91983.88
2023-12-07T16:24:26.619Z,91989.97
2023-12-07T16:27:30.156Z,91997.06
2023-12-07T16:30:40.390Z,92006.19
2023-12-07T16:33:49.677Z,91993.53
2023-12-07T16:36:53.306Z,91983.59
2023-12-07T16:39:58.174Z,91971.44
2023-12-07T16:43:01.779Z,91977.13
2023-12-07T16:46:05.854Z,91994.44
2023-12-07T16:49:10.399Z,91998.84
2023-12-07T16:52:14.172Z,92006.84
2023-12-07T16:55:17.683Z,92005.47
2023-12-07T16:58:29.962Z,92003.78
2023-12-07T17:01:35.277Z,92013.47
2023-12-07T17:04:38.914Z,92015.25
2023-12-07T17:07:42.720Z,92021.53
2023-12-07T17:10:46.215Z,92017.38
2023-12-07T17:13:50.347Z,92015.94
2023-12-07T17:16:54.159Z,92018.97
2023-12-07T17:19:58.681Z,92019.88
2023-12-07T17:23:02.282Z,92024.09
2023-12-07T17:26:06.183Z,92022.66
2023-12-07T17:29:11.126Z,92023.09
2023-12-07T17:32:14.698Z,92026.63
2023-12-07T17:35:18.646Z,92030.28
2023-12-07T17:38:22.390Z,92021.00
2023-12-07T17:41:25.905Z,92025.41
2023-12-07T17:44:29.748Z,92019.75
2023-12-07T17:47:33.270Z,92001.91
2023-12-07T17:50:36.983Z,92022.53
2023-12-07T17:53:41.390Z,92037.16
2023-12-07T17:56:45.428Z,92048.81
2023-12-07T17:59:49.500Z,92039.03
2023-12-07T18:02:53.249Z,92055.09
2023-12-07T18:05:57.159Z,92050.59
2023-12-07T18:09:00.816Z,92046.63
2023-12-07T18:12:04.759Z,92062.00
2023-12-07T18:15:11.916Z,92051.22
2023-12-07T18:18:15.577Z,92051.81
2023-12-07T18:21:20.200Z,92054.28
2023-12-07T18:24:23.889Z,92070.88
2023-12-07T18:27:27.556Z,92064.84
2023-12-07T18:30:31.084Z,92063.69
2023-12-07T18:33:34.947Z,92061.63
2023-12-07T18:36:38.450Z,92066.44
2023-12-07T18:39:42.105Z,92080.59
2023-12-07T18:42:45.610Z,92087.22
2023-12-07T18:45:49.766Z,92101.16
2023-12-07T18:48:53.550Z,92091.00
2023-12-07T18:51:57.342Z,92083.56
2023-12-07T18:55:00.958Z,92084.50
2023-12-07T18:58:04.588Z,92087.06
2023-12-07T19:01:08.253Z,92095.16
2023-12-07T19:04:11.796Z,92088.66
2023-12-07T19:07:15.540Z,92091.38
2023-12-07T19:10:19.585Z,92089.50
2023-12-07T19:13:23.293Z,92100.78
2023-12-07T19:16:30.753Z,92102.41
2023-12-07T19:19:35.798Z,92099.16
2023-12-07T19:22:39.549Z,92095.63
2023-12-07T19:25:43.296Z,92098.53
2023-12-07T19:28:47.264Z,92103.38
2023-12-07T19:31:51.103Z,92119.50
2023-12-07T19:34:55.037Z,92112.22
2023-12-07T19:37:58.607Z,92104.78
2023-12-07T19:41:07.497Z,92103.44
2023-12-07T19:44:14.878Z,92101.69
2023-12-07T19:47:18.479Z,92095.28
2023-12-07T19:50:22.110Z,92103.31
2023-12-07T19:53:25.644Z,92111.19
2023-12-07T19:56:30.751Z,92111.19
2023-12-07T19:59:34.460Z,92121.75
2023-12-07T20:02:38.646Z,92132.06
2023-12-07T20:05:42.271Z,92126.69
2023-12-07T20:08:46.882Z,92125.78
2023-12-07T20:11:50.999Z,92135.28
2023-12-07T20:14:54.763Z,92139.53
2023-12-07T20:17:58.478Z,92146.94
2023-12-07T20:21:02.854Z,92155.94
2023-12-07T20:24:08.023Z,92159.78
2023-12-07T20:27:11.677Z,92152.38
2023-12-07T20:30:15.450Z,92146.81
2023-12-07T20:33:19.127Z,92169.34
2023-12-07T20:36:22.903Z,92181.13
2023-12-07T20:39:27.605Z,92181.84
2023-12-07T20:42:31.152Z,92188.44
2023-12-07T20:45:34.965Z,92182.84
2023-12-07T20:48:38.708Z,92167.81
2023-12-07T20:51:42.627Z,92171.31
2023-12-07T20:54:48.299Z,92170.84
2023-12-07T20:57:53.152Z,92173.19
2023-12-07T21:00:56.898Z,92182.34
2023-12-07T21:04:00.573Z,92188.81
2023-12-07T21:07:04.128Z,92190.69
2023-12-07T21:10:08.247Z,92186.34
2023-12-07T21:13:11.953Z,92194.50
2023-12-07T21:16:15.595Z,92203.31
2023-12-07T21:19:21.019Z,92221.13
2023-12-07T21:22:25.414Z,92217.16
2023-12-07T21:25:29.020Z,92211.56
2023-12-07T21:28:32.877Z,92218.59
2023-12-07T21:31:37.104Z,92214.00
2023-12-07T21:34:44.613Z,92223.09
2023-12-07T21:37:48.228Z,92225.69
2023-12-07T21:40:52.105Z,92225.47
2023-12-07T21:43:55.830Z,92237.09
2023-12-07T21:46:59.680Z,92228.78
2023-12-07T21:50:05.282Z,92238.53
2023-12-07T21:53:09.062Z,92242.00
2023-12-07T21:56:15.600Z,92234.59
2023-12-07T21:59:19.296Z,92251.53
2023-12-07T22:02:23.011Z,92260.09
2023-12-07T22:05:26.699Z,92270.28
2023-12-07T22:08:30.672Z,92275.13
2023-12-07T22:11:34.390Z,92286.50
2023-12-07T22:14:40.072Z,92287.16
2023-12-07T22:17:43.743Z,92273.56
2023-12-07T22:20:47.518Z,92282.31
2023-12-07T22:23:51.251Z,92284.19
2023-12-07T22:26:55.011Z,92285.56
2023-12-07T22:29:59.082Z,92295.53
2023-12-07T22:33:02.970Z,92288.84
2023-12-07T22:36:07.174Z,92295.03
2023-12-07T22:39:11.024Z,92307.31
2023-12-07T22:42:14.532Z,92322.59
2023-12-07T22:45:19.850Z,92329.28
2023-12-07T22:48:23.918Z,92334.56
2023-12-07T22:51:27.564Z,92340.59
2023-12-07T22:54:31.169Z,92360.94
2023-12-07T22:57:34.928Z,92368.31
2023-12-07T23:00:38.716Z,92358.81
2023-12-07T23:03:42.495Z,92371.09
2023-12-07T23:06:46.048Z,92368.94
2023-12-07T23:09:50.087Z,92365.25
2023-12-07T23:12:53.765Z,92353.53
2023-12-07T23:15:57.381Z,92358.13
2023-12-07T23:19:01.191Z,92373.91
2023-12-07T23:22:04.992Z,92368.38
2023-12-07T23:25:08.804Z,92386.91
2023-12-07T23:28:12.470Z,92404.28
2023-12-07T23:31:16.387Z,92405.03
2023-12-07T23:34:20.088Z,92413.13
2023-12-07T23:37:24.394Z,92420.78
2023-12-07T23:40:28.282Z,92427.25
2023-12-07T23:43:31.664Z,92448.31
2023-12-07T23:46:35.232Z,92464.78
2023-12-07T23:49:38.861Z,92471.75
2023-12-07T23:52:42.735Z,92483.53
2023-12-07T23:55:46.787Z,92495.38
2023-12-07T23:58:50.447Z,92499.75
